Time;durP1;ratioP1;P1;durP2;ratioP2;P2;SDS_P1;SDS_P2;PMS_P1;PMS_P2;Temp;Humidity;BMP_temperature;BMP_pressure;BME280_temperature;BME280_humidity;BME280_pressure;Samples;Min_cycle;Max_cycle;Signal;HPM_P1;HPM_P2
2023/08/01 00:00:11;;;;;;;2.53;1.73;;;;;;;17.75;100.00;92831.81;5065496;28;20513;-76
2023/08/01 00:02:38;;;;;;;2.30;1.30;;;;;;;17.71;100.00;92828.19;5066356;28;20044;-76
2023/08/01 00:05:06;;;;;;;3.70;1.60;;;;;;;17.56;100.00;92821.19;5061828;28;20036;-76
2023/08/01 00:07:32;;;;;;;2.97;1.67;;;;;;;17.62;100.00;92831.31;5062666;28;20056;-76
2023/08/01 00:09:59;;;;;;;2.00;1.20;;;;;;;17.54;100.00;92816.25;5064949;28;20048;-76
2023/08/01 00:12:26;;;;;;;2.85;1.40;;;;;;;17.57;100.00;92826.13;5062459;28;20048;-76
2023/08/01 00:14:54;;;;;;;3.60;1.25;;;;;;;17.52;100.00;92823.53;5065125;28;20094;-75
2023/08/01 00:17:21;;;;;;;2.53;1.45;;;;;;;17.53;100.00;92827.69;5063826;28;20067;-75
2023/08/01 00:19:48;;;;;;;2.13;1.42;;;;;;;17.50;100.00;92826.41;5066257;28;20094;-75
2023/08/01 00:22:14;;;;;;;2.97;1.80;;;;;;;17.42;100.00;92811.38;5065233;28;20070;-75
2023/08/01 00:24:41;;;;;;;2.45;1.40;;;;;;;17.46;100.00;92822.00;5061859;28;20094;-75
2023/08/01 00:27:10;;;;;;;2.53;1.30;;;;;;;17.45;100.00;92823.03;5062363;28;20110;-75
2023/08/01 00:29:37;;;;;;;2.88;1.63;;;;;;;17.42;100.00;92820.97;5066085;28;20059;-75
2023/08/01 00:32:06;;;;;;;2.83;1.52;;;;;;;17.36;100.00;92809.81;5058558;28;20553;-75
2023/08/01 00:34:33;;;;;;;3.20;1.60;;;;;;;17.40;100.00;92820.44;5063104;28;20101;-75
2023/08/01 00:36:59;;;;;;;2.55;1.67;;;;;;;17.29;100.00;92815.25;5063651;28;20044;-74
2023/08/01 00:39:26;;;;;;;2.20;1.55;;;;;;;17.39;100.00;92822.25;5064939;28;20130;-75
2023/08/01 00:41:53;;;;;;;2.63;1.50;;;;;;;17.34;100.00;92823.06;5063059;28;20049;-76
2023/08/01 00:44:19;;;;;;;3.05;1.63;;;;;;;17.34;100.00;92817.84;5066308;28;20048;-76
2023/08/01 00:46:46;;;;;;;3.20;1.45;;;;;;;17.34;100.00;92819.66;5068607;28;20036;-75
2023/08/01 00:49:15;;;;;;;2.67;1.30;;;;;;;17.23;100.00;92811.88;5069633;28;20106;-75
2023/08/01 00:51:42;;;;;;;3.33;1.20;;;;;;;17.26;100.00;92813.19;5065212;28;20090;-75
2023/08/01 00:54:09;;;;;;;2.50;1.70;;;;;;;17.23;100.00;92813.72;5069082;28;20886;-76
2023/08/01 00:56:37;;;;;;;2.25;1.40;;;;;;;17.17;100.00;92805.13;5064454;28;20098;-76
2023/08/01 00:59:04;;;;;;;2.53;1.50;;;;;;;17.16;100.00;92806.19;5066298;28;20490;-76
2023/08/01 01:01:30;;;;;;;2.67;1.63;;;;;;;17.15;100.00;92809.03;5067736;28;20078;-75
2023/08/01 01:03:57;;;;;;;2.95;1.80;;;;;;;17.09;100.00;92808.28;5064352;28;20126;-75
2023/08/01 01:06:31;;;;;;;3.60;1.50;;;;;;;17.07;100.00;92812.91;5068609;28;20106;-76
2023/08/01 01:08:58;;;;;;;4.32;1.83;;;;;;;17.01;100.00;92806.16;5067508;28;20048;-76
2023/08/01 01:11:25;;;;;;;3.88;1.92;;;;;;;16.97;100.00;92808.50;5068448;28;20125;-76
2023/08/01 01:13:52;;;;;;;2.67;1.75;;;;;;;16.94;100.00;92803.84;5068954;28;20775;-76
2023/08/01 01:16:19;;;;;;;2.67;1.52;;;;;;;16.90;100.00;92806.13;5068759;28;20045;-76
2023/08/01 01:18:46;;;;;;;3.08;2.15;;;;;;;16.87;100.00;92803.28;5066518;28;20441;-76
2023/08/01 01:21:14;;;;;;;4.97;2.00;;;;;;;16.75;100.00;92799.13;5069091;28;20045;-76
2023/08/01 01:23:42;;;;;;;3.45;1.67;;;;;;;16.75;100.00;92798.38;5063414;28;20102;-76
2023/08/01 01:26:10;;;;;;;3.55;1.98;;;;;;;16.62;100.00;92773.72;5069415;28;20090;-76
2023/08/01 01:28:38;;;;;;;3.22;2.10;;;;;;;16.65;100.00;92793.94;5065747;28;20090;-76
2023/08/01 01:31:05;;;;;;;2.42;1.60;;;;;;;16.64;100.00;92792.38;5064038;28;20091;-76
2023/08/01 01:33:32;;;;;;;3.58;2.28;;;;;;;16.64;100.00;92794.97;5068714;28;20049;-76
2023/08/01 01:35:58;;;;;;;3.08;1.85;;;;;;;16.62;100.00;92784.09;5064166;28;20048;-76
2023/08/01 01:38:26;;;;;;;3.50;2.25;;;;;;;16.58;100.00;92783.81;5064332;28;20044;-76
2023/08/01 01:40:53;;;;;;;4.65;1.80;;;;;;;16.58;100.00;92785.63;5063478;28;20044;-76
2023/08/01 01:43:20;;;;;;;5.00;1.98;;;;;;;16.55;100.00;92795.50;5067417;28;20052;-76
2023/08/01 01:45:46;;;;;;;4.28;2.13;;;;;;;16.55;100.00;92790.31;5063716;28;20044;-76
2023/08/01 01:48:13;;;;;;;4.88;2.25;;;;;;;16.45;100.00;92782.50;5067182;28;20517;-76
2023/08/01 01:50:40;;;;;;;6.05;2.30;;;;;;;16.45;100.00;92786.91;5067549;28;20049;-76
2023/08/01 01:53:07;;;;;;;4.35;2.58;;;;;;;16.45;100.00;92785.09;5065913;28;20048;-75
2023/08/01 01:55:35;;;;;;;5.13;2.53;;;;;;;16.41;100.00;92790.03;5066193;28;20045;-76
2023/08/01 01:58:02;;;;;;;4.30;2.33;;;;;;;16.39;100.00;92797.25;5068025;28;20052;-75
2023/08/01 02:00:28;;;;;;;6.93;2.65;;;;;;;16.30;100.00;92786.59;5062513;28;20044;-76
2023/08/01 02:02:56;;;;;;;5.05;2.55;;;;;;;16.36;100.00;92789.22;5066292;28;20467;-74
2023/08/01 02:05:22;;;;;;;4.85;3.03;;;;;;;16.33;100.00;92789.75;5067377;28;20048;-74
2023/08/01 02:07:49;;;;;;;4.70;2.75;;;;;;;16.31;100.00;92795.16;5065522;28;20044;-74
2023/08/01 02:10:16;;;;;;;6.50;3.33;;;;;;;16.30;100.00;92798.81;5067089;28;20052;-75
2023/08/01 02:12:44;;;;;;;5.72;2.80;;;;;;;16.27;100.00;92794.13;5067736;28;20437;-75
2023/08/01 02:15:11;;;;;;;4.78;2.45;;;;;;;16.29;100.00;92797.22;5065248;28;20101;-75
2023/08/01 02:17:37;;;;;;;4.15;2.10;;;;;;;16.27;100.00;92800.09;5062978;28;20502;-75
2023/08/01 02:20:05;;;;;;;6.07;2.30;;;;;;;16.22;100.00;92799.28;5066844;28;20048;-76
2023/08/01 02:22:31;;;;;;;5.78;2.63;;;;;;;16.13;100.00;92792.00;5067334;28;20105;-76
2023/08/01 02:24:58;;;;;;;7.03;2.85;;;;;;;16.12;100.00;92795.63;5065685;28;20165;-76
2023/08/01 02:27:25;;;;;;;8.43;3.20;;;;;;;16.00;100.00;92772.53;5065782;28;20049;-75
2023/08/01 02:29:53;;;;;;;6.07;2.65;;;;;;;16.13;100.00;92796.41;5064481;28;20094;-75
2023/08/01 02:32:20;;;;;;;7.82;2.90;;;;;;;16.05;100.00;92789.13;5065180;28;20506;-76
2023/08/01 02:34:47;;;;;;;6.13;2.50;;;;;;;16.06;100.00;92790.69;5067394;28;20036;-76
2023/08/01 02:37:14;;;;;;;6.10;2.67;;;;;;;15.90;100.00;92773.25;5067539;28;20058;-76
2023/08/01 02:39:41;;;;;;;8.18;2.83;;;;;;;16.00;100.00;92789.88;5067679;28;20041;-76
2023/08/01 02:42:08;;;;;;;7.43;2.97;;;;;;;15.92;100.00;92783.34;5066365;28;20544;-76
2023/08/01 02:44:35;;;;;;;4.82;2.70;;;;;;;15.94;100.00;92793.47;5065842;28;20048;-76
2023/08/01 02:47:03;;;;;;;7.28;2.85;;;;;;;15.89;100.00;92787.22;5066451;28;20045;-76
2023/08/01 02:49:28;;;;;;;5.32;2.70;;;;;;;15.79;100.00;92792.38;5067485;28;20056;-76
2023/08/01 02:51:55;;;;;;;4.93;2.83;;;;;;;15.79;100.00;92794.97;5067706;28;20057;-76
2023/08/01 02:54:22;;;;;;;6.75;2.80;;;;;;;15.74;100.00;92792.34;5062781;28;20502;-76
2023/08/01 02:56:49;;;;;;;4.68;2.95;;;;;;;15.68;100.00;92795.91;5063030;28;20055;-76
2023/08/01 02:59:15;;;;;;;4.32;2.38;;;;;;;15.64;100.00;92793.06;5064721;28;20423;-76
2023/08/01 03:01:42;;;;;;;4.93;2.90;;;;;;;15.65;100.00;92804.19;5066287;28;20179;-76
2023/08/01 03:04:11;;;;;;;4.28;2.47;;;;;;;15.66;100.00;92792.81;5064244;28;20102;-76
2023/08/01 03:06:39;;;;;;;6.85;2.97;;;;;;;15.69;100.00;92787.91;5066452;28;20098;-76
2023/08/01 03:09:07;;;;;;;6.00;2.70;;;;;;;15.72;100.00;92799.56;5066498;28;20494;-76
2023/08/01 03:11:36;;;;;;;2.97;2.42;;;;;;;15.76;100.00;92806.59;5064734;28;20422;-76
2023/08/01 03:14:04;;;;;;;4.13;2.80;;;;;;;15.75;100.00;92812.03;5063731;28;20044;-77
2023/08/01 03:16:31;;;;;;;5.68;2.83;;;;;;;15.75;100.00;92799.84;5065821;28;20063;-77
2023/08/01 03:19:00;;;;;;;6.05;2.60;;;;;;;15.74;100.00;92803.47;5064303;28;20040;-77
2023/08/01 03:21:28;;;;;;;5.47;2.35;;;;;;;15.70;100.00;92799.06;5066263;28;20056;-77
2023/08/01 03:23:55;;;;;;;5.95;3.13;;;;;;;15.65;100.00;92804.19;5067218;28;20044;-76
2023/08/01 03:26:21;;;;;;;4.28;2.75;;;;;;;15.66;100.00;92803.16;5066153;28;20117;-76
2023/08/01 03:28:48;;;;;;;7.45;2.60;;;;;;;15.70;100.00;92809.41;5065925;28;20048;-76
2023/08/01 03:31:15;;;;;;;7.18;2.83;;;;;;;15.69;100.00;92808.63;5066299;28;20452;-76
2023/08/01 03:33:42;;;;;;;4.75;2.33;;;;;;;15.68;100.00;92820.00;5065692;28;20556;-76
2023/08/01 03:36:08;;;;;;;6.10;2.80;;;;;;;15.68;100.00;92814.81;5063462;28;20052;-76
2023/08/01 03:38:36;;;;;;;4.50;2.60;;;;;;;15.60;100.00;92805.72;5063041;28;20090;-76
2023/08/01 03:41:04;;;;;;;6.20;2.40;;;;;;;15.61;100.00;92809.09;5059765;28;20045;-76
2023/08/01 03:43:31;;;;;;;7.85;3.22;;;;;;;15.60;100.00;92804.97;5063805;28;20128;-76
2023/08/01 03:45:58;;;;;;;8.50;3.60;;;;;;;15.30;100.00;92764.91;5064156;28;20102;-76
2023/08/01 03:48:24;;;;;;;8.80;3.85;;;;;;;15.59;100.00;92808.56;5065312;28;20535;-76
2023/08/01 03:50:51;;;;;;;6.45;3.72;;;;;;;15.60;100.00;92818.66;5062293;28;20048;-76
2023/08/01 03:53:18;;;;;;;5.88;3.42;;;;;;;15.58;100.00;92812.19;5065850;28;20121;-76
2023/08/01 03:55:47;;;;;;;7.03;3.42;;;;;;;15.62;100.00;92821.81;5065196;28;20456;-75
2023/08/01 03:58:14;;;;;;;7.65;3.78;;;;;;;15.58;100.00;92817.34;5064794;28;20060;-75
2023/08/01 04:00:41;;;;;;;7.10;3.28;;;;;;;15.57;100.00;92816.59;5066384;28;20049;-76
2023/08/01 04:03:08;;;;;;;6.35;3.70;;;;;;;15.57;100.00;92829.53;5063473;28;20094;-75
2023/08/01 04:05:34;;;;;;;7.45;3.60;;;;;;;15.58;100.00;92825.13;5061797;28;20502;-75
2023/08/01 04:08:01;;;;;;;9.98;4.03;;;;;;;15.42;100.00;92799.13;5063256;28;20048;-76
2023/08/01 04:10:28;;;;;;;15.20;4.18;;;;;;;15.67;100.00;92826.22;5063487;28;20051;-75
2023/08/01 04:12:56;;;;;;;7.85;4.40;;;;;;;15.68;100.00;92827.78;5061525;28;20101;-75
2023/08/01 04:15:23;;;;;;;10.38;3.65;;;;;;;15.68;100.00;92821.81;5061485;28;20052;-76
2023/08/01 04:17:49;;;;;;;11.77;4.10;;;;;;;15.74;100.00;92824.19;5060919;28;20044;-75
2023/08/01 04:20:16;;;;;;;10.52;4.35;;;;;;;15.80;100.00;92824.22;5064239;28;20044;-75
2023/08/01 04:22:43;;;;;;;8.60;3.80;;;;;;;15.57;100.00;92795.88;5063440;28;20449;-75
2023/08/01 04:25:10;;;;;;;9.40;4.32;;;;;;;15.81;100.00;92833.53;5065863;28;20049;-75
2023/08/01 04:27:36;;;;;;;9.50;3.75;;;;;;;15.80;100.00;92830.19;5063202;28;20134;-75
2023/08/01 04:30:06;;;;;;;8.27;4.47;;;;;;;15.92;100.00;92822.19;5063859;28;20113;-75
2023/08/01 04:32:32;;;;;;;10.93;3.88;;;;;;;15.97;100.00;92821.47;5063471;28;20414;-75
2023/08/01 04:34:59;;;;;;;8.40;4.20;;;;;;;15.96;100.00;92812.16;5064472;28;20044;-75
2023/08/01 04:37:26;;;;;;;9.02;3.55;;;;;;;16.05;100.00;92817.63;5063387;28;20044;-76
2023/08/01 04:39:52;;;;;;;8.95;3.95;;;;;;;16.15;100.00;92815.84;5067374;28;20105;-76
2023/08/01 04:42:19;;;;;;;6.63;3.58;;;;;;;16.23;100.00;92816.38;5066132;28;20065;-75
2023/08/01 04:44:46;;;;;;;17.25;4.70;;;;;;;16.29;100.00;92817.94;5068557;28;20098;-75
2023/08/01 04:47:15;;;;;;;10.40;4.43;;;;;;;16.29;100.00;92805.00;5068317;28;20040;-75
2023/08/01 04:49:41;;;;;;;8.27;3.90;;;;;;;16.39;100.00;92812.03;5065461;28;20045;-75
2023/08/01 04:52:08;;;;;;;9.90;3.83;;;;;;;16.38;100.00;92802.72;5069066;28;20048;-75
2023/08/01 04:54:35;;;;;;;10.52;4.55;;;;;;;16.48;100.00;92812.31;5066850;28;20444;-75
2023/08/01 04:57:02;;;;;;;6.72;3.80;;;;;;;16.52;100.00;92813.38;5069441;28;20047;-75
2023/08/01 04:59:28;;;;;;;11.20;4.32;;;;;;;16.58;100.00;92811.56;5066211;28;20053;-75
2023/08/01 05:01:55;;;;;;;12.02;4.88;;;;;;;16.63;100.00;92798.59;5066183;28;20045;-75
2023/08/01 05:04:23;;;;;;;14.27;4.78;;;;;;;16.69;100.00;92800.16;5066164;28;20041;-75
2023/08/01 05:06:50;;;;;;;10.80;4.43;;;;;;;16.78;100.00;92816.00;5069980;28;20048;-76
2023/08/01 05:09:17;;;;;;;10.30;4.13;;;;;;;16.65;100.00;92793.94;5067959;28;20094;-75
2023/08/01 05:11:43;;;;;;;9.00;4.05;;;;;;;16.67;100.00;92802.25;5067352;28;20067;-75
2023/08/01 05:14:10;;;;;;;10.27;4.80;;;;;;;16.80;100.00;92809.50;5069086;28;20049;-75
2023/08/01 05:16:37;;;;;;;7.90;4.35;;;;;;;16.83;100.00;92810.81;5067783;28;20048;-75
2023/08/01 05:19:03;;;;;;;8.25;4.53;;;;;;;16.66;100.00;92804.03;5068411;28;20520;-75
2023/08/01 05:21:32;;;;;;;10.20;5.03;;;;;;;16.70;100.00;92819.88;5065228;28;20045;-75
2023/08/01 05:23:58;;;;;;;6.95;3.97;;;;;;;16.64;100.00;92813.13;5063916;28;20052;-75
2023/08/01 05:26:25;;;;;;;6.05;3.42;;;;;;;16.36;100.00;92818.50;5066844;28;20044;-75
2023/08/01 05:28:52;;;;;;;7.10;4.10;;;;;;;16.37;100.00;92816.69;5065877;28;20070;-75
2023/08/01 05:31:19;;;;;;;6.15;3.75;;;;;;;16.47;100.00;92818.53;5065763;28;20086;-75
2023/08/01 05:33:45;;;;;;;5.60;3.30;;;;;;;16.60;100.00;92817.25;5062988;28;20049;-75
2023/08/01 05:36:12;;;;;;;6.90;3.58;;;;;;;16.69;100.00;92810.53;5067422;28;20101;-75
2023/08/01 05:38:40;;;;;;;5.70;3.42;;;;;;;16.88;100.00;92820.41;5065583;28;20044;-75
2023/08/01 05:41:07;;;;;;;8.50;3.75;;;;;;;16.96;100.00;92818.06;5067886;28;20543;-75
2023/08/01 05:43:34;;;;;;;7.65;2.97;;;;;;;17.24;100.00;92820.47;5062998;28;20052;-76
2023/08/01 05:46:01;;;;;;;5.68;3.00;;;;;;;17.43;100.00;92822.50;5067494;28;21226;-75
2023/08/01 05:48:28;;;;;;;6.78;3.88;;;;;;;17.49;100.00;92816.25;5064598;28;20044;-75
2023/08/01 05:50:55;;;;;;;8.13;3.80;;;;;;;17.62;100.00;92813.16;5064139;28;20514;-75
2023/08/01 05:53:22;;;;;;;6.82;4.00;;;;;;;17.82;100.00;92813.34;5065169;28;20962;-75
2023/08/01 05:55:50;;;;;;;8.93;4.20;;;;;;;18.07;100.00;92812.53;5064720;28;20051;-75
2023/08/01 05:58:17;;;;;;;9.35;4.30;;;;;;;18.32;100.00;92817.88;5064265;28;20448;-75
2023/08/01 06:00:44;;;;;;;7.53;3.92;;;;;;;18.56;100.00;92813.59;5066840;28;20052;-75
2023/08/01 06:03:10;;;;;;;8.05;3.78;;;;;;;18.79;100.00;92811.38;5067673;28;20044;-75
2023/08/01 06:05:38;;;;;;;5.85;3.53;;;;;;;19.00;100.00;92800.81;5067586;28;20057;-76
2023/08/01 06:08:06;;;;;;;8.52;3.47;;;;;;;19.27;100.00;92801.41;5062751;28;20103;-76
2023/08/01 06:10:33;;;;;;;10.23;3.30;;;;;;;19.54;100.00;92800.13;5060479;28;20049;-75
2023/08/01 06:13:01;;;;;;;9.93;3.47;;;;;;;19.79;100.00;92804.31;5065207;28;20075;-76
2023/08/01 06:15:28;;;;;;;13.98;3.63;;;;;;;20.01;98.85;92803.81;5066328;28;20117;-75
2023/08/01 06:17:54;;;;;;;7.90;2.42;;;;;;;20.32;97.32;92807.13;5062505;28;20040;-75
2023/08/01 06:20:21;;;;;;;11.27;2.85;;;;;;;20.59;95.51;92803.91;5066560;28;20040;-75
2023/08/01 06:22:48;;;;;;;6.30;2.42;;;;;;;20.80;91.29;92803.63;5011454;28;1555485;-75
2023/08/01 06:25:15;;;;;;;4.78;2.10;;;;;;;21.13;88.47;92795.06;5065223;28;20053;-75
2023/08/01 06:27:42;;;;;;;4.60;2.17;;;;;;;21.44;84.91;92794.56;5067450;28;20040;-75
2023/08/01 06:30:11;;;;;;;5.50;2.80;;;;;;;21.61;83.64;92804.44;5064474;28;20506;-75
2023/08/01 06:32:38;;;;;;;7.57;2.90;;;;;;;21.80;83.50;92806.25;5064119;28;20157;-75
2023/08/01 06:35:05;;;;;;;5.32;2.65;;;;;;;22.04;83.18;92806.06;5066206;28;20048;-75
2023/08/01 06:37:32;;;;;;;8.88;3.45;;;;;;;22.22;82.90;92799.16;5064116;28;20053;-75
2023/08/01 06:39:59;;;;;;;9.48;3.78;;;;;;;22.46;81.26;92794.75;5061982;28;20052;-75
2023/08/01 06:42:26;;;;;;;10.43;4.07;;;;;;;22.69;78.22;92790.38;5064947;28;20478;-76
2023/08/01 06:44:53;;;;;;;12.38;3.65;;;;;;;22.91;78.56;92788.84;5066448;28;20090;-75
2023/08/01 06:47:21;;;;;;;12.75;3.55;;;;;;;22.55;76.59;92788.56;5067339;28;20052;-76
2023/08/01 06:49:48;;;;;;;14.07;2.30;;;;;;;22.52;77.43;92788.34;5064971;28;20086;-76
2023/08/01 06:52:14;;;;;;;6.32;2.83;;;;;;;22.88;77.70;92795.47;5067086;28;20141;-75
2023/08/01 06:54:41;;;;;;;12.50;3.90;;;;;;;22.47;78.25;92797.09;5061126;28;20045;-76
2023/08/01 06:57:08;;;;;;;9.02;3.28;;;;;;;22.72;76.54;92786.41;5062907;28;20044;-75
2023/08/01 06:59:35;;;;;;;11.10;3.15;;;;;;;22.36;78.34;92793.16;5065911;28;20053;-76
2023/08/01 07:02:02;;;;;;;11.55;3.50;;;;;;;22.32;78.49;92786.94;5066558;28;20472;-76
2023/08/01 07:04:30;;;;;;;16.52;3.75;;;;;;;22.39;77.15;92788.09;5064774;28;20494;-76
2023/08/01 07:06:56;;;;;;;15.18;4.18;;;;;;;22.74;76.53;92785.03;5065668;28;20495;-76
2023/08/01 07:09:23;;;;;;;9.88;2.42;;;;;;;22.89;74.81;92783.91;5062231;28;20048;-76
2023/08/01 07:11:50;;;;;;;13.65;3.13;;;;;;;23.17;76.40;92772.53;5064608;28;20415;-76
2023/08/01 07:14:17;;;;;;;8.00;2.25;;;;;;;23.71;74.27;92779.59;5065818;28;20094;-76
2023/08/01 07:16:44;;;;;;;13.32;3.08;;;;;;;23.59;71.59;92785.41;5063179;28;20548;-76
2023/08/01 07:19:10;;;;;;;10.85;3.17;;;;;;;23.64;70.32;92784.53;5061156;28;20425;-76
2023/08/01 07:21:39;;;;;;;7.95;2.45;;;;;;;23.32;71.31;92764.31;5065726;28;20102;-76
2023/08/01 07:24:05;;;;;;;13.77;3.65;;;;;;;24.01;72.06;92777.22;5061859;28;20048;-76
2023/08/01 07:26:32;;;;;;;10.38;2.08;;;;;;;24.42;68.26;92775.34;5064634;28;20044;-76
2023/08/01 07:28:59;;;;;;;6.32;2.40;;;;;;;24.53;68.48;92771.31;5062807;28;20052;-76
2023/08/01 07:31:26;;;;;;;6.10;2.60;;;;;;;24.40;68.41;92780.13;5065637;28;20040;-76
2023/08/01 07:33:52;;;;;;;5.55;2.00;;;;;;;24.37;67.85;92772.84;5065504;28;20052;-76
2023/08/01 07:36:21;;;;;;;6.80;2.20;;;;;;;24.76;67.89;92778.28;5065891;28;20044;-76
2023/08/01 07:38:49;;;;;;;6.72;3.08;;;;;;;25.29;68.24;92765.91;5065732;28;20158;-76
2023/08/01 07:41:16;;;;;;;11.93;2.80;;;;;;;24.99;66.13;92778.91;5066600;28;20044;-76
2023/08/01 07:43:42;;;;;;;11.13;2.90;;;;;;;25.12;66.14;92764.06;5063941;28;20097;-76
2023/08/01 07:46:11;;;;;;;10.98;2.97;;;;;;;24.95;65.16;92768.25;5064830;28;20104;-76
2023/08/01 07:48:38;;;;;;;8.00;2.65;;;;;;;25.43;65.29;92770.97;5062264;28;20163;-76
2023/08/01 07:51:05;;;;;;;5.18;2.47;;;;;;;25.66;65.93;92767.34;5065242;28;20456;-75
2023/08/01 07:53:32;;;;;;;11.18;2.90;;;;;;;26.11;65.84;92769.44;5062081;28;20513;-75
2023/08/01 07:56:02;;;;;;;9.95;3.75;;;;;;;26.56;61.18;92772.59;5065252;28;20615;-76
2023/08/01 07:58:28;;;;;;;6.90;2.95;;;;;;;26.22;62.03;92767.25;5063325;28;20044;-76
2023/08/01 08:00:55;;;;;;;4.03;1.92;;;;;;;26.09;63.68;92753.22;5064017;28;20093;-76
2023/08/01 08:03:23;;;;;;;8.32;2.58;;;;;;;26.13;61.34;92761.25;5063362;28;20060;-76
2023/08/01 08:05:50;;;;;;;6.60;1.92;;;;;;;25.96;64.70;92764.75;5063168;28;20044;-76
2023/08/01 08:08:16;;;;;;;8.88;2.83;;;;;;;26.28;62.58;92760.72;5066127;28;20086;-75
2023/08/01 08:10:43;;;;;;;5.93;2.20;;;;;;;26.92;63.29;92757.31;5064477;28;20051;-76
2023/08/01 08:13:11;;;;;;;5.28;2.20;;;;;;;27.39;62.51;92750.97;5062614;28;20410;-76
2023/08/01 08:15:38;;;;;;;5.43;2.22;;;;;;;27.81;59.97;92749.31;5062586;28;20830;-76
2023/08/01 08:18:05;;;;;;;4.35;2.10;;;;;;;27.66;57.25;92742.78;5063859;28;20106;-76
2023/08/01 08:20:32;;;;;;;4.72;2.22;;;;;;;27.46;58.24;92727.47;5063361;28;20048;-76
2023/08/01 08:22:58;;;;;;;6.13;2.30;;;;;;;27.64;59.49;92752.91;5065551;28;20057;-75
2023/08/01 08:25:25;;;;;;;4.15;1.98;;;;;;;28.00;58.18;92744.22;5063143;28;20049;-77
2023/08/01 08:27:52;;;;;;;5.85;1.90;;;;;;;28.38;56.74;92747.59;5064077;28;20502;-76
2023/08/01 08:30:20;;;;;;;2.58;1.58;;;;;;;28.77;55.10;92744.53;5063857;28;20090;-76
2023/08/01 08:32:47;;;;;;;7.32;2.28;;;;;;;29.07;55.58;92735.53;5063181;28;20551;-76
2023/08/01 08:35:13;;;;;;;3.30;1.95;;;;;;;28.99;53.19;92736.44;5062826;28;20052;-76
2023/08/01 08:37:40;;;;;;;3.70;1.77;;;;;;;29.11;52.84;92740.91;5062194;28;20048;-74
2023/08/01 08:40:08;;;;;;;4.10;1.80;;;;;;;29.46;53.91;92734.97;5060148;28;20044;-75
2023/08/01 08:42:35;;;;;;;13.43;3.03;;;;;;;29.72;52.33;92729.19;5060575;28;20053;-75
2023/08/01 08:45:03;;;;;;;4.95;1.70;;;;;;;29.83;50.44;92736.59;5059486;28;20052;-74
2023/08/01 08:47:35;;;;;;;3.63;1.67;;;;;;;29.62;49.35;92729.69;5059147;28;20150;-74
2023/08/01 08:50:02;;;;;;;4.72;1.70;;;;;;;29.67;51.81;92731.34;5059151;28;20099;-74
2023/08/01 08:52:30;;;;;;;9.52;2.13;;;;;;;30.06;51.63;92731.44;5059067;28;20049;-74
2023/08/01 08:54:57;;;;;;;3.08;1.60;;;;;;;29.95;51.30;92736.50;5060190;28;20052;-74
2023/08/01 08:57:24;;;;;;;2.90;1.65;;;;;;;30.33;51.92;92733.53;5059774;28;20052;-74
2023/08/01 08:59:53;;;;;;;4.20;1.40;;;;;;;30.57;49.39;92731.75;5060385;28;20049;-74
2023/08/01 09:02:22;;;;;;;2.70;1.27;;;;;;;30.63;46.54;92733.78;5058184;28;20135;-75
2023/08/01 09:04:50;;;;;;;2.80;1.35;;;;;;;30.40;45.36;92723.88;5060992;28;20130;-74
2023/08/01 09:07:19;;;;;;;3.00;1.50;;;;;;;29.99;47.30;92696.88;5063563;28;20102;-74
2023/08/01 09:09:45;;;;;;;2.53;1.23;;;;;;;29.98;48.33;92709.34;5062557;28;20502;-74
2023/08/01 09:12:13;;;;;;;4.15;1.65;;;;;;;29.52;47.88;92714.34;5062403;28;20056;-74
2023/08/01 09:14:41;;;;;;;3.58;1.40;;;;;;;29.37;48.32;92710.53;5062329;28;20399;-74
2023/08/01 09:17:08;;;;;;;3.42;1.50;;;;;;;29.72;49.63;92708.00;5062230;28;20078;-74
2023/08/01 09:19:35;;;;;;;2.90;1.40;;;;;;;30.15;48.06;92718.03;5061826;28;20139;-75
2023/08/01 09:22:11;;;;;;;2.95;1.40;;;;;;;30.51;45.76;92702.13;5062277;28;20102;-74
2023/08/01 09:24:37;;;;;;;;;;;;;;;29.32;42.45;92715.00;5063686;28;20090;-75
2023/08/01 09:27:05;;;;;;;2.67;1.23;;;;;;;28.65;42.47;92675.88;5063299;28;20382;-75
2023/08/01 09:29:32;;;;;;;3.22;0.98;;;;;;;29.53;46.59;92697.38;5062939;28;20052;-75
2023/08/01 09:31:59;;;;;;;2.00;1.17;;;;;;;29.95;45.12;92712.66;5062355;28;20040;-76
2023/08/01 09:34:27;;;;;;;3.65;1.40;;;;;;;30.26;43.42;92707.66;5061710;28;21003;-75
2023/08/01 09:36:59;;;;;;;4.70;1.23;;;;;;;30.66;42.72;92705.81;5061594;28;20391;-74
2023/08/01 09:39:28;;;;;;;2.60;1.08;;;;;;;30.79;42.18;92706.47;5062556;28;20628;-74
2023/08/01 09:41:58;;;;;;;4.15;1.70;;;;;;;31.20;41.96;92709.47;5062655;28;20121;-74
2023/08/01 09:44:26;;;;;;;1.95;0.95;;;;;;;30.70;38.54;92704.03;5062117;28;20097;-74
2023/08/01 09:46:57;;;;;;;2.97;1.02;;;;;;;30.23;39.39;92695.88;5066767;28;20041;-74
2023/08/01 09:49:24;;;;;;;1.55;1.00;;;;;;;29.79;40.70;92685.44;5063756;28;20128;-74
2023/08/01 09:51:52;;;;;;;1.77;0.90;;;;;;;30.30;42.81;92681.28;5066577;28;20102;-74
2023/08/01 09:54:19;;;;;;;2.25;1.20;;;;;;;30.74;41.60;92675.72;5066446;28;20197;-74
2023/08/01 09:56:49;;;;;;;2.15;1.30;;;;;;;31.16;41.21;92684.78;5066690;28;20045;-74
2023/08/01 09:59:20;;;;;;;2.17;1.35;;;;;;;31.19;40.44;92657.53;5068214;28;20327;-74
2023/08/01 10:01:50;;;;;;;2.10;1.00;;;;;;;31.57;40.54;92680.91;5065674;28;20075;-74
2023/08/01 10:04:19;;;;;;;2.63;1.33;;;;;;;31.89;38.44;92679.84;5064006;28;20072;-74
2023/08/01 10:06:50;;;;;;;2.33;1.10;;;;;;;32.00;38.55;92672.81;5067107;28;20045;-74
2023/08/01 10:09:18;;;;;;;4.70;1.50;;;;;;;32.18;38.21;92665.06;5066870;28;20727;-74
2023/08/01 10:11:47;;;;;;;4.40;1.02;;;;;;;32.34;36.58;92661.47;5065090;28;20146;-74
2023/08/01 10:14:15;;;;;;;2.03;1.00;;;;;;;32.15;33.96;92662.38;5065804;28;20442;-73
2023/08/01 10:16:43;;;;;;;5.05;1.50;;;;;;;32.20;37.01;92662.81;5066258;28;20044;-74
2023/08/01 10:19:11;;;;;;;2.85;1.17;;;;;;;32.48;38.17;92659.00;5062079;28;20563;-74
2023/08/01 10:21:39;;;;;;;2.88;1.10;;;;;;;32.62;36.39;92653.06;5061500;28;20877;-74
2023/08/01 10:24:08;;;;;;;2.17;1.10;;;;;;;32.82;35.98;92652.13;5061802;28;20621;-74
2023/08/01 10:26:35;;;;;;;1.60;1.00;;;;;;;32.95;34.81;92648.06;5061801;28;20498;-74
2023/08/01 10:29:03;;;;;;;2.90;1.35;;;;;;;32.95;35.99;92642.75;5061705;28;20048;-74
2023/08/01 10:31:29;;;;;;;2.28;1.27;;;;;;;33.29;36.65;92656.00;5061705;28;20048;-74
2023/08/01 10:34:05;;;;;;;2.25;1.00;;;;;;;33.10;32.92;92635.72;5061893;28;20494;-73
2023/08/01 10:36:32;;;;;;;2.35;1.15;;;;;;;32.30;33.00;92604.84;5062342;28;20460;-74
2023/08/01 10:39:00;;;;;;;1.70;0.90;;;;;;;33.00;34.90;92644.34;5058607;28;20125;-74
2023/08/01 10:41:29;;;;;;;2.22;1.65;;;;;;;33.16;33.53;92641.44;5060892;28;20044;-74
2023/08/01 10:44:07;;;;;;;3.08;1.10;;;;;;;33.24;33.74;92643.03;5060030;28;20457;-74
2023/08/01 10:46:48;;;;;;;12.23;1.33;;;;;;;33.41;31.53;92638.22;5060574;28;20727;-74
2023/08/01 10:49:15;;;;;;;1.80;0.95;;;;;;;33.00;32.66;92631.78;5060467;28;20123;-73
2023/08/01 10:51:42;;;;;;;3.40;1.60;;;;;;;33.06;32.54;92629.59;5061434;28;20648;-74
2023/08/01 10:54:20;;;;;;;1.98;1.23;;;;;;;33.08;32.60;92629.22;5061533;28;20119;-73
2023/08/01 10:56:48;;;;;;;1.52;0.70;;;;;;;33.24;33.01;92621.75;5061216;28;20047;-74
2023/08/01 10:59:17;;;;;;;1.80;1.00;;;;;;;33.32;29.03;92610.00;5060655;28;20547;-74
2023/08/01 11:01:48;;;;;;;2.20;0.98;;;;;;;32.96;32.08;92604.41;5061407;28;20113;-74
2023/08/01 11:04:16;;;;;;;2.33;1.02;;;;;;;33.25;32.28;92596.66;5060474;28;20448;-74
2023/08/01 11:06:47;;;;;;;1.95;0.80;;;;;;;33.46;31.48;92598.69;5060517;28;20049;-74
2023/08/01 11:09:19;;;;;;;1.88;0.93;;;;;;;33.32;30.00;92593.31;5061163;28;20056;-74
2023/08/01 11:11:47;;;;;;;2.35;0.80;;;;;;;33.46;31.78;92587.31;5060693;28;20068;-74
2023/08/01 11:14:14;;;;;;;1.80;0.73;;;;;;;33.68;31.32;92590.09;5060032;28;20762;-74
2023/08/01 11:16:44;;;;;;;3.30;1.20;;;;;;;33.77;30.59;92579.16;5060924;28;20049;-74
2023/08/01 11:19:19;;;;;;;2.13;0.80;;;;;;;34.06;30.34;92588.03;5060837;28;20514;-74
2023/08/01 11:21:46;;;;;;;3.53;1.20;;;;;;;34.11;29.79;92585.00;5060160;28;20063;-74
2023/08/01 11:24:13;;;;;;;2.83;0.80;;;;;;;34.02;31.07;92576.59;5060290;28;20045;-75
2023/08/01 11:26:42;;;;;;;2.03;1.20;;;;;;;34.10;29.61;92586.16;5059261;28;20098;-75
2023/08/01 11:29:10;;;;;;;1.20;0.60;;;;;;;33.69;27.97;92527.75;5061159;28;20174;-75